createdAt,value
2023-02-06T00:00:27.604Z,-2.18
2023-02-06T00:01:31.937Z,-2.09
2023-02-06T00:02:37.388Z,-2.09
2023-02-06T00:03:43.010Z,-2.11
2023-02-06T00:04:49.990Z,-2.12
2023-02-06T00:06:03.129Z,-2.12
2023-02-06T00:07:06.492Z,-2.15
2023-02-06T00:08:10.630Z,-2.15
2023-02-06T00:09:14.750Z,-2.18
2023-02-06T00:10:18.988Z,-2.18
2023-02-06T00:11:23.469Z,-2.17
2023-02-06T00:12:30.204Z,-2.17
2023-02-06T00:13:36.088Z,-2.16
2023-02-06T00:14:40.303Z,-2.16
2023-02-06T00:15:44.826Z,-2.14
2023-02-06T00:16:49.359Z,-2.14
2023-02-06T00:17:53.321Z,-2.13
2023-02-06T00:18:58.729Z,-2.10
2023-02-06T00:20:03.932Z,-2.08
2023-02-06T00:21:08.012Z,-2.14
2023-02-06T00:22:12.277Z,-2.14
2023-02-06T00:23:16.795Z,-2.10
2023-02-06T00:24:20.875Z,-2.12
2023-02-06T00:25:25.101Z,-2.15
2023-02-06T00:26:29.630Z,-2.09
2023-02-06T00:27:33.994Z,-2.09
2023-02-06T00:28:39.156Z,-2.17
2023-02-06T00:29:43.280Z,-2.14
2023-02-06T00:30:48.431Z,-2.28
2023-02-06T00:31:52.493Z,-2.28
2023-02-06T00:32:56.629Z,-2.14
2023-02-06T00:34:03.706Z,-2.14
2023-02-06T00:35:13.817Z,-2.09
2023-02-06T00:36:22.027Z,-2.09
2023-02-06T00:37:27.658Z,-2.05
2023-02-06T00:38:32.327Z,-2.06
2023-02-06T00:39:36.424Z,-2.09
2023-02-06T00:40:40.828Z,-2.09
2023-02-06T00:41:45.465Z,-2.10
2023-02-06T00:42:49.493Z,-2.10
2023-02-06T00:43:55.454Z,-2.11
2023-02-06T00:44:59.729Z,-2.13
2023-02-06T00:46:04.618Z,-2.13
2023-02-06T00:47:08.658Z,-2.09
2023-02-06T00:48:12.838Z,-2.07
2023-02-06T00:49:17.056Z,-2.06
2023-02-06T00:50:23.878Z,-2.10
2023-02-06T00:51:28.213Z,-2.07
2023-02-06T00:52:32.507Z,-2.05
2023-02-06T00:53:36.687Z,-2.09
2023-02-06T00:54:40.841Z,-2.07
2023-02-06T00:55:45.089Z,-2.07
2023-02-06T00:56:49.248Z,-2.03
2023-02-06T00:57:53.453Z,-2.12
2023-02-06T00:58:57.523Z,-2.15
2023-02-06T01:00:01.958Z,-2.12
2023-02-06T01:01:08.514Z,-2.14
2023-02-06T01:02:12.748Z,-2.14
2023-02-06T01:03:16.980Z,-2.17
2023-02-06T01:04:21.248Z,-2.13
2023-02-06T01:05:25.448Z,-2.15
2023-02-06T01:06:29.744Z,-2.17
2023-02-06T01:07:39.599Z,-2.17
2023-02-06T01:08:43.731Z,-2.17
2023-02-06T01:09:47.790Z,-2.14
2023-02-06T01:10:51.953Z,-2.14
2023-02-06T01:11:56.001Z,-2.12
2023-02-06T01:13:00.379Z,-2.12
2023-02-06T01:14:04.503Z,-2.10
2023-02-06T01:15:10.867Z,-2.19
2023-02-06T01:16:18.020Z,-2.16
2023-02-06T01:17:22.138Z,-2.18
2023-02-06T01:18:26.281Z,-2.18
2023-02-06T01:19:30.343Z,-2.19
2023-02-06T01:20:35.156Z,-2.20
2023-02-06T01:21:39.169Z,-2.20
2023-02-06T01:22:43.240Z,-2.23
2023-02-06T01:23:50.119Z,-2.20
2023-02-06T01:24:54.313Z,-2.18
2023-02-06T01:25:58.485Z,-2.23
2023-02-06T01:27:02.637Z,-2.23
2023-02-06T01:28:06.724Z,-2.22
2023-02-06T01:29:10.780Z,-2.21
2023-02-06T01:30:16.500Z,-2.21
2023-02-06T01:31:23.731Z,-2.20
2023-02-06T01:32:27.829Z,-2.19
2023-02-06T01:33:31.840Z,-2.18
2023-02-06T01:34:35.968Z,-2.18
2023-02-06T01:35:39.912Z,-2.18
2023-02-06T01:36:43.863Z,-2.17
2023-02-06T01:37:47.829Z,-2.13
2023-02-06T01:38:52.813Z,-2.14
2023-02-06T01:39:56.741Z,-2.20
2023-02-06T01:41:02.094Z,-2.15
2023-02-06T01:42:06.401Z,-2.17
2023-02-06T01:43:13.432Z,-2.18
2023-02-06T01:44:23.260Z,-2.22
2023-02-06T01:45:42.203Z,-2.20
2023-02-06T01:46:48.805Z,-2.18
2023-02-06T01:47:58.470Z,-2.17
2023-02-06T01:49:06.920Z,-2.20
2023-02-06T01:50:10.372Z,-2.21
2023-02-06T01:51:17.456Z,-2.19
2023-02-06T01:52:24.428Z,-2.23
2023-02-06T01:53:29.816Z,-2.28
2023-02-06T01:54:33.973Z,-2.25
2023-02-06T01:55:42.435Z,-2.24
2023-02-06T01:56:49.421Z,-2.21
2023-02-06T01:57:53.529Z,-2.21
2023-02-06T01:59:00.364Z,-2.22
2023-02-06T02:00:07.761Z,-2.21
2023-02-06T02:01:12.444Z,-2.19
2023-02-06T02:02:16.720Z,-2.23
2023-02-06T02:03:20.864Z,-2.27
2023-02-06T02:04:27.906Z,-2.24
2023-02-06T02:05:34.343Z,-2.28
2023-02-06T02:06:40.311Z,-2.29
2023-02-06T02:07:59.393Z,-2.29
2023-02-06T02:09:04.445Z,-2.35
2023-02-06T02:10:09.313Z,-2.33
2023-02-06T02:11:16.304Z,-2.33
2023-02-06T02:12:20.903Z,-2.41
2023-02-06T02:13:24.829Z,-2.41
2023-02-06T02:14:29.093Z,-2.41
2023-02-06T02:15:36.422Z,-2.39
2023-02-06T02:17:04.896Z,-2.37
2023-02-06T02:18:26.805Z,-2.38
2023-02-06T02:19:33.885Z,-2.36
2023-02-06T02:20:57.540Z,-2.38
2023-02-06T02:22:19.067Z,-2.42
2023-02-06T02:23:35.010Z,-2.42
2023-02-06T02:24:53.779Z,-2.42
2023-02-06T02:26:11.870Z,-2.44
2023-02-06T02:27:41.267Z,-2.39
2023-02-06T02:28:57.028Z,-2.50
2023-02-06T02:30:23.697Z,-2.43
2023-02-06T02:31:57.472Z,-2.42
2023-02-06T02:33:09.908Z,-2.42
2023-02-06T02:34:33.201Z,-2.47
2023-02-06T02:35:48.873Z,-2.45
2023-02-06T02:36:55.843Z,-2.46
2023-02-06T02:38:10.065Z,-2.51
2023-02-06T02:39:17.103Z,-2.47
2023-02-06T02:40:27.036Z,-2.50
2023-02-06T02:41:39.769Z,-2.48
2023-02-06T02:42:49.716Z,-2.44
2023-02-06T02:44:14.899Z,-2.40
2023-02-06T02:45:24.688Z,-2.46
2023-02-06T02:46:34.370Z,-2.42
2023-02-06T02:47:49.805Z,-2.45
2023-02-06T02:48:57.222Z,-2.40
2023-02-06T02:50:03.320Z,-2.38
2023-02-06T02:51:09.243Z,-2.39
2023-02-06T02:52:14.262Z,-2.35
2023-02-06T02:53:18.367Z,-2.42
2023-02-06T02:54:22.279Z,-2.42
2023-02-06T02:55:26.473Z,-2.45
2023-02-06T02:56:32.032Z,-2.42
2023-02-06T02:57:36.819Z,-2.46
2023-02-06T02:58:40.977Z,-2.38
2023-02-06T02:59:48.026Z,-2.41
2023-02-06T03:00:58.190Z,-2.40
2023-02-06T03:02:08.209Z,-2.46
2023-02-06T03:03:14.653Z,-2.46
2023-02-06T03:04:21.608Z,-2.37
2023-02-06T03:05:27.282Z,-2.37
2023-02-06T03:06:43.260Z,-2.39
2023-02-06T03:08:06.717Z,-2.47
2023-02-06T03:09:34.457Z,-2.45
2023-02-06T03:11:00.920Z,-2.46
2023-02-06T03:12:13.424Z,-2.43
2023-02-06T03:13:36.921Z,-2.52
2023-02-06T03:14:43.985Z,-2.57
2023-02-06T03:15:51.048Z,-2.56
2023-02-06T03:16:58.244Z,-2.58
2023-02-06T03:18:14.100Z,-2.55
2023-02-06T03:19:21.213Z,-2.55
2023-02-06T03:20:26.920Z,-2.52
2023-02-06T03:21:33.055Z,-2.58
2023-02-06T03:22:39.174Z,-2.63
2023-02-06T03:23:46.193Z,-2.60
2023-02-06T03:24:51.527Z,-2.55
2023-02-06T03:25:58.623Z,-2.58
2023-02-06T03:27:05.811Z,-2.66
2023-02-06T03:28:18.480Z,-2.66
2023-02-06T03:29:22.905Z,-2.64
2023-02-06T03:30:30.049Z,-2.69
2023-02-06T03:31:42.614Z,-2.63
2023-02-06T03:32:49.655Z,-2.67
2023-02-06T03:33:59.458Z,-2.62
2023-02-06T03:35:12.495Z,-2.61
2023-02-06T03:36:18.783Z,-2.69
2023-02-06T03:37:24.648Z,-2.62
2023-02-06T03:38:29.108Z,-2.62
2023-02-06T03:39:33.564Z,-2.58
2023-02-06T03:40:40.228Z,-2.58
2023-02-06T03:41:46.137Z,-2.63
2023-02-06T03:42:53.182Z,-2.64
2023-02-06T03:43:58.654Z,-2.61
2023-02-06T03:45:05.752Z,-2.59
2023-02-06T03:46:13.399Z,-2.58
2023-02-06T03:47:19.308Z,-2.59
2023-02-06T03:48:26.314Z,-2.64
2023-02-06T03:49:33.122Z,-2.62
2023-02-06T03:50:39.616Z,-2.58
2023-02-06T03:51:46.584Z,-2.67
2023-02-06T03:52:53.971Z,-2.67
2023-02-06T03:54:01.314Z,-2.64
2023-02-06T03:55:08.400Z,-2.63
2023-02-06T03:56:15.571Z,-2.71
2023-02-06T03:57:22.167Z,-2.71
2023-02-06T03:58:26.342Z,-2.69
2023-02-06T03:59:31.330Z,-2.70
2023-02-06T04:00:37.082Z,-2.64
2023-02-06T04:01:44.035Z,-2.60
2023-02-06T04:02:49.179Z,-2.59
2023-02-06T04:03:53.972Z,-2.57
2023-02-06T04:04:57.987Z,-2.58
2023-02-06T04:06:02.121Z,-2.58
2023-02-06T04:07:09.137Z,-2.61
2023-02-06T04:08:13.159Z,-2.61
2023-02-06T04:09:17.088Z,-2.66
2023-02-06T04:10:21.048Z,-2.67
2023-02-06T04:11:26.451Z,-2.67
2023-02-06T04:12:30.590Z,-2.61
2023-02-06T04:13:34.589Z,-2.63
2023-02-06T04:14:40.213Z,-2.62
2023-02-06T04:15:44.320Z,-2.59
2023-02-06T04:16:48.479Z,-2.56
2023-02-06T04:18:01.675Z,-2.57
2023-02-06T04:19:06.132Z,-2.55
2023-02-06T04:20:11.193Z,-2.55
2023-02-06T04:21:15.103Z,-2.59
2023-02-06T04:22:19.004Z,-2.59
2023-02-06T04:23:23.102Z,-2.65
2023-02-06T04:24:28.350Z,-2.67
2023-02-06T04:25:32.701Z,-2.63
2023-02-06T04:26:36.753Z,-2.65
2023-02-06T04:27:40.907Z,-2.65
2023-02-06T04:28:44.823Z,-2.69
2023-02-06T04:29:48.897Z,-2.60
2023-02-06T04:30:53.036Z,-2.59
2023-02-06T04:31:57.079Z,-2.59
2023-02-06T04:33:00.981Z,-2.56
2023-02-06T04:34:04.998Z,-2.59
2023-02-06T04:35:11.970Z,-2.57
2023-02-06T04:36:20.632Z,-2.55
2023-02-06T04:37:26.780Z,-2.56
2023-02-06T04:38:32.092Z,-2.60
2023-02-06T04:39:37.710Z,-2.63
2023-02-06T04:40:41.949Z,-2.59
2023-02-06T04:41:46.016Z,-2.58
2023-02-06T04:42:50.030Z,-2.62
2023-02-06T04:43:54.066Z,-2.60
2023-02-06T04:44:58.078Z,-2.61
2023-02-06T04:46:02.185Z,-2.55
2023-02-06T04:47:06.567Z,-2.62
2023-02-06T04:48:10.696Z,-2.60
2023-02-06T04:49:15.403Z,-2.59
2023-02-06T04:50:19.797Z,-2.58
2023-02-06T04:51:23.944Z,-2.58
2023-02-06T04:52:27.949Z,-2.55
2023-02-06T04:53:32.028Z,-2.51
2023-02-06T04:54:35.993Z,-2.47
2023-02-06T04:55:39.962Z,-2.50
2023-02-06T04:56:45.239Z,-2.52
2023-02-06T04:57:49.480Z,-2.52
2023-02-06T04:58:53.537Z,-2.52
2023-02-06T04:59:57.548Z,-2.50
2023-02-06T05:01:02.513Z,-2.50
2023-02-06T05:02:07.885Z,-2.50
2023-02-06T05:03:11.813Z,-2.51
2023-02-06T05:04:15.798Z,-2.53
2023-02-06T05:05:19.902Z,-2.49
2023-02-06T05:06:24.046Z,-2.47
2023-02-06T05:07:28.068Z,-2.47
2023-02-06T05:08:32.593Z,-2.42
2023-02-06T05:09:36.958Z,-2.45
2023-02-06T05:10:44.075Z,-2.43
2023-02-06T05:11:50.409Z,-2.43
2023-02-06T05:12:57.179Z,-2.45
2023-02-06T05:14:16.496Z,-2.42
2023-02-06T05:15:20.636Z,-2.39
2023-02-06T05:16:25.147Z,-2.43
2023-02-06T05:17:30.075Z,-2.47
2023-02-06T05:18:34.546Z,-2.48
2023-02-06T05:19:38.639Z,-2.43
2023-02-06T05:20:43.270Z,-2.45
2023-02-06T05:21:47.260Z,-2.42
2023-02-06T05:22:51.438Z,-2.41
2023-02-06T05:23:55.577Z,-2.41
2023-02-06T05:24:59.644Z,-2.42
2023-02-06T05:26:05.820Z,-2.42
2023-02-06T05:27:09.970Z,-2.44
2023-02-06T05:28:14.100Z,-2.44
2023-02-06T05:29:18.363Z,-2.38
2023-02-06T05:30:24.323Z,-2.42
2023-02-06T05:31:28.458Z,-2.38
2023-02-06T05:32:32.425Z,-2.39
2023-02-06T05:33:36.507Z,-2.39
2023-02-06T05:34:40.720Z,-2.46
2023-02-06T05:35:44.810Z,-2.47
2023-02-06T05:36:49.453Z,-2.47
2023-02-06T05:37:53.536Z,-2.52
2023-02-06T05:38:57.598Z,-2.59
2023-02-06T05:40:01.772Z,-2.58
2023-02-06T05:41:06.141Z,-2.58
2023-02-06T05:42:10.316Z,-2.55
2023-02-06T05:43:14.311Z,-2.56
2023-02-06T05:44:18.325Z,-2.51
2023-02-06T05:45:22.551Z,-2.57
2023-02-06T05:46:26.734Z,-2.53
2023-02-06T05:47:30.965Z,-2.47
2023-02-06T05:48:38.610Z,-2.47
2023-02-06T05:49:42.487Z,-2.47
2023-02-06T05:50:51.672Z,-2.49
2023-02-06T05:51:55.673Z,-2.47
2023-02-06T05:52:59.716Z,-2.47
2023-02-06T05:54:03.822Z,-2.52
2023-02-06T05:55:08.437Z,-2.52
2023-02-06T05:56:13.079Z,-2.52
2023-02-06T05:57:18.727Z,-2.52
2023-02-06T05:58:30.073Z,-2.57
2023-02-06T05:59:35.760Z,-2.54
2023-02-06T06:00:40.353Z,-2.52
2023-02-06T06:01:49.812Z,-2.48
2023-02-06T06:02:53.963Z,-2.51
2023-02-06T06:03:57.963Z,-2.51
2023-02-06T06:05:02.038Z,-2.47
2023-02-06T06:06:06.807Z,-2.51
2023-02-06T06:07:11.043Z,-2.51
2023-02-06T06:08:15.190Z,-2.44
2023-02-06T09:38:35.259Z,-0.15
2023-02-06T09:39:41.207Z,-0.23
2023-02-06T09:40:45.445Z,-0.19
2023-02-06T09:42:05.876Z,-0.34
2023-02-06T09:43:13.342Z,-0.35
2023-02-06T09:44:29.506Z,-0.44
2023-02-06T09:45:36.099Z,-0.44
2023-02-06T09:46:48.337Z,-0.54
2023-02-06T09:47:52.479Z,-0.46
2023-02-06T09:49:00.420Z,-0.39
2023-02-06T09:50:09.424Z,-0.36
2023-02-06T09:51:25.420Z,-0.34
2023-02-06T09:52:40.969Z,-0.35
2023-02-06T09:54:00.115Z,-0.28
2023-02-06T09:55:10.261Z,-0.29
2023-02-06T09:56:29.581Z,-0.32
2023-02-06T09:58:03.722Z,-0.22
2023-02-06T09:59:33.495Z,-0.17
2023-02-06T10:00:46.239Z,-0.20
2023-02-06T10:02:08.198Z,-0.20
2023-02-06T10:03:20.734Z,-0.17
2023-02-06T10:04:46.938Z,-0.20
2023-02-06T10:05:53.968Z,-0.23
2023-02-06T10:07:31.466Z,-0.18
2023-02-06T10:08:41.671Z,-0.11
2023-02-06T10:09:54.639Z,-0.16
2023-02-06T10:11:18.674Z,-0.16
2023-02-06T10:13:01.603Z,-0.11
2023-02-06T10:14:26.847Z,-0.11
2023-02-06T10:15:34.005Z,-0.10
2023-02-06T10:16:50.458Z,-0.06
2023-02-06T10:18:03.221Z,0.14
2023-02-06T10:19:16.120Z,0.22
2023-02-06T10:20:34.925Z,0.28
2023-02-06T10:21:42.045Z,0.35
2023-02-06T10:23:05.498Z,0.29
2023-02-06T10:24:15.415Z,0.29
2023-02-06T10:25:34.481Z,-0.03
2023-02-06T10:26:40.708Z,0.01
2023-02-06T10:27:49.368Z,-0.02
2023-02-06T10:28:59.248Z,-0.12
2023-02-06T10:30:04.226Z,-0.24
2023-02-06T10:31:26.164Z,-0.24
2023-02-06T10:32:59.164Z,-0.17
2023-02-06T10:34:15.148Z,-0.13
2023-02-06T10:35:28.166Z,-0.15
2023-02-06T10:36:57.410Z,-0.08
2023-02-06T10:38:04.696Z,-0.08
2023-02-06T10:39:28.792Z,0.05
2023-02-06T10:40:51.219Z,0.08
2023-02-06T10:43:39.961Z,-4.13
2023-02-06T10:45:17.244Z,0.37
2023-02-06T10:46:26.949Z,0.37
2023-02-06T10:47:50.845Z,0.43
2023-02-06T10:49:17.885Z,0.35
2023-02-06T10:50:31.115Z,0.42
2023-02-06T10:51:44.149Z,0.41
2023-02-06T10:52:48.838Z,0.16
2023-02-06T10:54:02.172Z,0.20
2023-02-06T10:55:24.460Z,0.23
2023-02-06T10:56:43.794Z,0.31
2023-02-06T10:57:50.221Z,0.31
2023-02-06T10:59:00.155Z,0.28
2023-02-06T11:00:06.950Z,0.16
2023-02-06T11:01:25.119Z,0.16
2023-02-06T11:02:39.137Z,0.19
2023-02-06T11:03:49.168Z,0.09
2023-02-06T11:04:56.280Z,0.08
2023-02-06T11:06:02.841Z,0.09
2023-02-06T11:07:09.984Z,0.16
2023-02-06T11:08:34.923Z,0.05
2023-02-06T11:09:38.961Z,0.05
2023-02-06T11:10:46.031Z,0.11
2023-02-06T11:11:53.340Z,0.09
2023-02-06T11:13:15.127Z,0.09
2023-02-06T11:14:27.765Z,0.00
2023-02-06T11:16:06.462Z,0.16
2023-02-06T11:17:14.310Z,0.16
2023-02-06T11:18:24.310Z,0.08
2023-02-06T11:19:31.387Z,0.08
2023-02-06T11:20:38.598Z,0.18
2023-02-06T11:21:49.154Z,0.15
2023-02-06T11:22:53.898Z,0.13
2023-02-06T11:24:14.238Z,0.13
2023-02-06T11:25:34.819Z,0.06
2023-02-06T11:27:00.022Z,0.02
2023-02-06T11:28:04.335Z,0.02
2023-02-06T11:29:32.446Z,0.05
2023-02-06T11:30:39.959Z,0.05
2023-02-06T11:31:57.373Z,-0.17
2023-02-06T11:33:06.046Z,-0.22
2023-02-06T11:34:30.300Z,-0.12
2023-02-06T11:36:04.343Z,-0.18
2023-02-06T11:39:09.686Z,-0.11
2023-02-06T11:40:29.283Z,-0.09
2023-02-06T11:41:34.852Z,-0.12
2023-02-06T11:42:41.963Z,-0.13
2023-02-06T11:43:56.555Z,-0.13
2023-02-06T11:47:43.005Z,0.05
2023-02-06T11:48:58.668Z,-0.08
2023-02-06T11:52:01.381Z,0.02
2023-02-06T11:54:48.089Z,0.01
2023-02-06T11:56:02.599Z,0.02
2023-02-06T11:57:27.239Z,0.07
2023-02-06T11:58:31.019Z,0.06
2023-02-06T11:59:37.423Z,-0.04
2023-02-06T12:00:53.171Z,-0.05
2023-02-06T12:02:02.779Z,0.00
2023-02-06T12:03:27.833Z,-0.07
2023-02-06T12:04:47.681Z,-0.01
2023-02-06T12:05:57.238Z,0.08
2023-02-06T12:07:11.378Z,0.11
2023-02-06T12:08:18.499Z,0.11
2023-02-06T12:09:22.707Z,0.08
2023-02-06T12:10:27.521Z,0.13
2023-02-06T12:11:37.107Z,0.12
2023-02-06T12:12:44.166Z,0.15
2023-02-06T12:13:51.253Z,0.15
2023-02-06T12:15:10.286Z,0.03
2023-02-06T12:16:08.860Z,-0.02
2023-02-06T12:17:21.666Z,-0.19
2023-02-06T12:18:46.563Z,-0.19
2023-02-06T12:19:53.600Z,-0.23
2023-02-06T12:21:01.014Z,-0.37
2023-02-06T12:22:10.718Z,-0.34
2023-02-06T12:23:20.492Z,-0.43
2023-02-06T12:24:30.759Z,-0.44
2023-02-06T12:28:26.342Z,-0.23
2023-02-06T12:30:01.688Z,-0.16
2023-02-06T12:32:41.251Z,-0.29
2023-02-06T12:33:55.137Z,-0.40
2023-02-06T12:36:15.060Z,-0.34
2023-02-06T12:37:56.988Z,-0.31
2023-02-06T12:39:06.630Z,-0.39
2023-02-06T12:40:42.631Z,-0.39
2023-02-06T12:41:52.577Z,-0.45
2023-02-06T12:43:02.351Z,-0.40
2023-02-06T12:44:24.118Z,-0.38
2023-02-06T12:45:36.977Z,-0.32
2023-02-06T12:46:43.719Z,-0.35
2023-02-06T12:48:01.601Z,-0.31
2023-02-06T12:49:11.534Z,-0.25
2023-02-06T12:50:24.277Z,-0.27
2023-02-06T12:51:55.030Z,-0.21
2023-02-06T12:53:20.387Z,-0.27
2023-02-06T12:54:30.309Z,-0.44
2023-02-06T12:55:46.413Z,-0.45
2023-02-06T12:57:02.473Z,-0.58
2023-02-06T12:58:27.336Z,-0.59
2023-02-06T12:59:52.138Z,-0.60
2023-02-06T13:01:30.736Z,-0.60
2023-02-06T13:03:05.913Z,-0.65
2023-02-06T13:04:15.780Z,-0.67
2023-02-06T13:05:40.779Z,-0.68
2023-02-06T13:06:53.606Z,-0.60
2023-02-06T13:08:00.656Z,-0.59
2023-02-06T13:09:07.013Z,-0.70
2023-02-06T13:10:14.674Z,-0.70
2023-02-06T13:11:41.285Z,-0.68
2023-02-06T13:12:42.360Z,-0.60
2023-02-06T13:13:48.479Z,-0.60
2023-02-06T13:15:01.442Z,-0.55
2023-02-06T13:17:39.254Z,-0.56
2023-02-06T13:18:47.854Z,-0.50
2023-02-06T13:20:14.664Z,-0.46
2023-02-06T13:21:35.122Z,-0.41
2023-02-06T13:22:47.868Z,-0.45
2023-02-06T13:24:04.807Z,-0.42
2023-02-06T13:25:46.256Z,-0.42
2023-02-06T13:40:41.917Z,-0.64
2023-02-06T13:41:47.322Z,-0.63
2023-02-06T13:43:24.822Z,-1.98
2023-02-06T13:44:34.875Z,-1.98
2023-02-06T13:45:57.672Z,-5.64
2023-02-06T13:47:20.357Z,-0.64
2023-02-06T13:48:59.866Z,-0.61
2023-02-06T13:50:32.447Z,-0.58
2023-02-06T13:52:30.339Z,-0.58
2023-02-06T13:53:36.364Z,-0.78
2023-02-06T13:54:52.430Z,-0.79
2023-02-06T13:56:05.441Z,-0.80
2023-02-06T13:57:44.322Z,-0.81
2023-02-06T13:58:51.441Z,-0.85
2023-02-06T14:03:33.001Z,-0.95
2023-02-06T14:04:41.151Z,-1.01
2023-02-06T14:06:03.190Z,-1.09
2023-02-06T14:07:48.080Z,-1.14
2023-02-06T14:09:06.984Z,-1.20
2023-02-06T14:10:21.230Z,-1.18
2023-02-06T14:11:28.540Z,-1.23
2023-02-06T14:13:05.833Z,-1.29
2023-02-06T14:14:37.195Z,-1.27
2023-02-06T14:15:44.256Z,-1.32
2023-02-06T14:17:09.230Z,-1.36
2023-02-06T14:18:31.352Z,-1.35
2023-02-06T14:19:50.167Z,-1.36
2023-02-06T14:21:21.303Z,-1.39
2023-02-06T14:22:43.367Z,-1.38
2023-02-06T14:24:21.472Z,-1.40
2023-02-06T14:25:33.048Z,-2.69
2023-02-06T14:27:01.176Z,-1.41
2023-02-06T14:28:29.013Z,-1.43
2023-02-06T14:30:01.798Z,-1.40
2023-02-06T14:31:32.178Z,-1.41
2023-02-06T14:32:55.910Z,-1.37
2023-02-06T14:34:05.669Z,-1.36
2023-02-06T14:35:43.129Z,-1.36
2023-02-06T14:36:54.459Z,-1.38
2023-02-06T14:38:27.022Z,-1.36
2023-02-06T14:39:53.812Z,-1.36
2023-02-06T14:41:12.414Z,-1.42
2023-02-06T14:42:41.638Z,-1.41
2023-02-06T14:46:24.676Z,-1.50
2023-02-06T14:47:31.153Z,-1.44
2023-02-06T14:49:00.495Z,-1.43
2023-02-06T14:50:05.579Z,-1.53
2023-02-06T14:51:24.500Z,-1.53
2023-02-06T14:52:31.532Z,-1.48
2023-02-06T14:53:40.336Z,-1.53
2023-02-06T14:54:44.427Z,-1.49
2023-02-06T14:55:48.561Z,-1.51
2023-02-06T14:57:04.354Z,-1.53
2023-02-06T14:58:14.076Z,-1.53
2023-02-06T14:59:19.425Z,-1.52
2023-02-06T15:00:25.172Z,-1.56
2023-02-06T15:01:31.201Z,-1.55
2023-02-06T15:02:37.074Z,-1.54
2023-02-06T15:03:41.354Z,-1.54
2023-02-06T15:04:48.047Z,-1.54
2023-02-06T15:06:07.356Z,-1.56
2023-02-06T15:07:14.644Z,-1.60
2023-02-06T15:08:21.765Z,-1.65
2023-02-06T15:09:32.055Z,-1.70
2023-02-06T15:10:37.853Z,-1.74
2023-02-06T15:11:42.059Z,-1.77
2023-02-06T15:12:52.007Z,-1.71
2023-02-06T15:13:57.916Z,-1.72
2023-02-06T15:15:13.870Z,-1.74
2023-02-06T15:16:19.497Z,-1.74
2023-02-06T15:17:26.981Z,-1.71
2023-02-06T15:18:31.178Z,-1.71
2023-02-06T15:19:36.846Z,-1.71
2023-02-06T15:20:44.020Z,-1.67
2023-02-06T15:21:49.564Z,-1.67
2023-02-06T15:23:02.162Z,-1.66
2023-02-06T15:24:30.459Z,-1.66
2023-02-06T15:25:37.735Z,-1.69
2023-02-06T15:26:50.366Z,-1.69
2023-02-06T15:28:02.039Z,-1.69
2023-02-06T15:29:11.405Z,-1.72
2023-02-06T15:30:41.384Z,-1.75
2023-02-06T15:31:49.124Z,-1.76
2023-02-06T15:32:55.544Z,-1.77
2023-02-06T15:34:01.616Z,-1.73
2023-02-06T15:58:30.751Z,-2.09
2023-02-06T16:20:30.598Z,-2.23
2023-02-06T16:21:34.813Z,-2.14
2023-02-06T16:22:41.888Z,-2.12
2023-02-06T16:23:54.592Z,-2.11
2023-02-06T16:26:54.303Z,-2.08
2023-02-06T16:27:56.627Z,-2.10
2023-02-06T16:29:07.488Z,-2.08
2023-02-06T16:30:32.317Z,-2.05
2023-02-06T16:31:55.777Z,-2.03
2023-02-06T16:32:49.067Z,-2.02
2023-02-06T16:34:04.109Z,-2.04
2023-02-06T16:35:18.535Z,-2.03
2023-02-06T16:36:26.343Z,-2.08
2023-02-06T16:37:32.268Z,-2.11
2023-02-06T16:38:51.034Z,-2.11
2023-02-06T16:39:59.815Z,-2.07
2023-02-06T16:41:34.825Z,-2.06
2023-02-06T16:42:44.899Z,-2.10
2023-02-06T16:44:11.611Z,-2.15
2023-02-06T16:45:20.730Z,-2.13
2023-02-06T16:46:34.661Z,-2.12
2023-02-06T16:47:44.029Z,-2.12
2023-02-06T16:50:10.237Z,-2.10
2023-02-06T16:51:30.927Z,-2.10
2023-02-06T16:52:37.946Z,-2.35
2023-02-06T16:59:52.575Z,-2.15
2023-02-06T17:01:47.351Z,-2.17
2023-02-06T23:24:35.226Z,-3.46
2023-02-06T23:26:00.464Z,-3.46
2023-02-06T23:27:13.488Z,-3.45
2023-02-06T23:28:20.793Z,-3.45
2023-02-06T23:29:45.615Z,-3.43
2023-02-06T23:30:58.552Z,-3.44
2023-02-06T23:32:13.440Z,-3.42
2023-02-06T23:33:22.893Z,-3.42
2023-02-06T23:34:31.684Z,-3.44
2023-02-06T23:37:22.690Z,-3.48
2023-02-06T23:38:28.505Z,-3.48
2023-02-06T23:39:35.163Z,-3.48
2023-02-06T23:40:44.170Z,-3.48
2023-02-06T23:41:50.109Z,-3.51
2023-02-06T23:42:56.733Z,-3.53
2023-02-06T23:44:04.285Z,-3.53
2023-02-06T23:45:10.473Z,-3.54
2023-02-06T23:46:16.472Z,-3.54
2023-02-06T23:47:21.013Z,-3.56
2023-02-06T23:48:25.574Z,-3.57
2023-02-06T23:49:32.273Z,-3.57
2023-02-06T23:50:36.921Z,-3.55
2023-02-06T23:51:41.457Z,-3.54
2023-02-06T23:52:45.780Z,-3.54
2023-02-06T23:53:52.372Z,-3.58
2023-02-06T23:54:56.766Z,-3.57
2023-02-06T23:56:13.766Z,-3.56
2023-02-06T23:57:18.097Z,-3.57
2023-02-06T23:58:22.662Z,-3.57
2023-02-06T23:59:28.406Z,-3.58
